Time;durP1;ratioP1;P1;durP2;ratioP2;P2;SDS_P1;SDS_P2;PMS_P1;PMS_P2;Temp;Humidity;BMP_temperature;BMP_pressure;BME280_temperature;BME280_humidity;BME280_pressure;Samples;Min_cycle;Max_cycle;Signal;HPM_P1;HPM_P2
2022/07/30 00:01:14;;;;;;;8.50;6.00;;;18.00;99.90;;;;;;4992180;28;20192;-68
2022/07/30 00:03:39;;;;;;;6.30;5.80;;;18.00;99.90;;;;;;4988816;28;20219;-68
2022/07/30 00:06:05;;;;;;;5.43;5.00;;;18.00;99.90;;;;;;4987960;28;20203;-68
2022/07/30 00:08:30;;;;;;;5.67;5.17;;;18.00;99.90;;;;;;4971513;28;20180;-68
2022/07/30 00:10:56;;;;;;;6.60;6.10;;;18.10;99.90;;;;;;4971805;28;20189;-68
2022/07/30 00:13:21;;;;;;;6.97;6.47;;;18.10;99.90;;;;;;4972184;28;20201;-68
2022/07/30 00:15:47;;;;;;;8.53;6.67;;;18.10;99.90;;;;;;4972421;28;20546;-68
2022/07/30 00:18:13;;;;;;;7.03;6.40;;;18.10;99.90;;;;;;4971016;28;20217;-67
2022/07/30 00:20:39;;;;;;;9.03;7.23;;;18.10;99.90;;;;;;4972327;28;20177;-68
2022/07/30 00:23:05;;;;;;;6.90;6.40;;;18.20;99.90;;;;;;4972425;28;20196;-68
2022/07/30 00:25:30;;;;;;;6.80;6.20;;;18.00;99.90;;;;;;4971359;28;20820;-68
2022/07/30 00:27:56;;;;;;;8.17;7.57;;;17.90;99.90;;;;;;4969625;28;20822;-68
2022/07/30 00:30:21;;;;;;;7.60;7.00;;;18.00;99.90;;;;;;4971957;28;20202;-68
2022/07/30 00:32:47;;;;;;;7.50;6.90;;;18.00;99.90;;;;;;4969538;28;20222;-68
2022/07/30 00:35:12;;;;;;;7.60;6.93;;;17.90;99.90;;;;;;4970100;28;20219;-68
2022/07/30 00:37:38;;;;;;;8.40;6.40;;;17.90;99.90;;;;;;4971782;28;20192;-68
2022/07/30 00:40:06;;;;;;;7.23;6.73;;;18.00;99.90;;;;;;4969287;28;20557;-68
2022/07/30 00:42:40;;;;;;;8.70;7.47;;;18.10;99.90;;;;;;4964443;28;20183;-68
2022/07/30 00:45:07;;;;;;;6.50;6.00;;;18.00;99.90;;;;;;4971730;28;20450;-68
2022/07/30 00:47:32;;;;;;;6.50;6.00;;;18.10;99.90;;;;;;4972036;28;20450;-68
2022/07/30 00:49:58;;;;;;;6.87;6.37;;;18.10;99.90;;;;;;4971657;28;20443;-68
2022/07/30 00:52:23;;;;;;;6.67;6.07;;;18.10;99.90;;;;;;4973905;28;20684;-68
2022/07/30 00:54:49;;;;;;;7.23;6.63;;;18.10;99.90;;;;;;4973010;28;20195;-68
2022/07/30 00:57:14;;;;;;;7.87;7.30;;;18.20;99.90;;;;;;4979571;28;20180;-68
2022/07/30 00:59:40;;;;;;;7.13;6.53;;;18.20;99.90;;;;;;4970032;28;20712;-68
2022/07/30 01:02:05;;;;;;;8.53;6.73;;;18.30;99.90;;;;;;4971447;28;20191;-68
2022/07/30 01:04:31;;;;;;;10.10;7.20;;;18.20;99.90;;;;;;4965578;28;20199;-68
2022/07/30 01:06:56;;;;;;;7.13;6.63;;;18.20;99.90;;;;;;4967047;28;20176;-68
2022/07/30 01:09:22;;;;;;;8.40;6.77;;;18.20;99.90;;;;;;4968889;28;20238;-68
2022/07/30 01:11:47;;;;;;;9.13;6.60;;;18.30;99.90;;;;;;4972930;28;20212;-68
2022/07/30 01:14:13;;;;;;;6.13;5.73;;;18.20;99.90;;;;;;4971069;28;20299;-68
2022/07/30 01:16:41;;;;;;;6.23;5.83;;;18.20;99.90;;;;;;4970780;28;20938;-68
2022/07/30 01:22:11;;;;;;;6.77;6.27;;;18.20;99.90;;;;;;4975249;28;20486;-68
2022/07/30 01:24:41;;;;;;;7.30;6.60;;;18.20;99.90;;;;;;4964145;28;20541;-68
2022/07/30 01:27:09;;;;;;;6.93;6.30;;;18.10;99.90;;;;;;4971970;28;20423;-68
2022/07/30 01:29:38;;;;;;;8.57;7.87;;;18.10;99.90;;;;;;4966931;28;20456;-68
2022/07/30 01:32:06;;;;;;;8.70;8.00;;;18.00;99.90;;;;;;4963974;28;20494;-67
2022/07/30 01:34:34;;;;;;;7.80;7.10;;;17.90;99.90;;;;;;4971078;28;20475;-68
2022/07/30 01:37:02;;;;;;;7.50;6.90;;;17.80;99.90;;;;;;4973439;28;20439;-69
2022/07/30 01:39:29;;;;;;;8.30;7.50;;;17.80;99.90;;;;;;4969677;28;20480;-68
2022/07/30 01:41:56;;;;;;;7.73;7.10;;;17.80;99.90;;;;;;4970726;28;20946;-68
2022/07/30 01:44:24;;;;;;;7.60;6.53;;;17.80;99.90;;;;;;4971341;28;20451;-67
2022/07/30 01:46:51;;;;;;;7.50;6.90;;;17.80;99.90;;;;;;4969346;28;20439;-68
2022/07/30 01:49:18;;;;;;;6.83;6.40;;;17.90;99.90;;;;;;4969384;28;20532;-68
2022/07/30 01:51:47;;;;;;;7.17;6.63;;;17.90;99.90;;;;;;4971112;28;20444;-68
2022/07/30 01:54:15;;;;;;;6.13;5.63;;;17.90;99.90;;;;;;4971996;28;20931;-68
2022/07/30 01:56:43;;;;;;;7.00;6.40;;;17.90;99.90;;;;;;4956779;28;20872;-68
2022/07/30 01:59:11;;;;;;;6.57;6.17;;;17.90;99.90;;;;;;4970526;28;20475;-68
2022/07/30 02:01:36;;;;;;;7.43;6.47;;;17.90;99.90;;;;;;4969979;28;20788;-68
2022/07/30 02:04:03;;;;;;;7.47;6.77;;;17.90;99.90;;;;;;4970910;28;20458;-68
2022/07/30 02:06:37;;;;;;;8.20;7.40;;;17.80;99.90;;;;;;4967267;28;20208;-68
2022/07/30 02:09:05;;;;;;;7.37;6.90;;;17.80;99.90;;;;;;4966674;28;20469;-67
2022/07/30 02:14:29;;;;;;;7.13;6.53;;;17.70;99.90;;;;;;4971819;28;20465;-68
2022/07/30 02:16:57;;;;;;;7.00;6.40;;;17.60;99.90;;;;;;4969490;28;20781;-68
2022/07/30 02:19:28;;;;;;;7.23;6.67;;;17.60;99.90;;;;;;4972316;28;21805;-68
2022/07/30 02:22:05;;;;;;;8.30;7.53;;;17.50;99.90;;;;;;4973058;28;20462;-68
2022/07/30 02:24:32;;;;;;;7.20;6.70;;;17.50;99.90;;;;;;4966257;28;20874;-68
2022/07/30 02:27:07;;;;;;;7.20;6.70;;;17.40;99.90;;;;;;4975197;28;20431;-68
2022/07/30 02:29:35;;;;;;;7.40;6.80;;;17.50;99.90;;;;;;4969632;28;20450;-68
2022/07/30 02:32:05;;;;;;;5.93;5.53;;;17.40;99.90;;;;;;4971182;28;20490;-68
2022/07/30 02:34:33;;;;;;;7.37;6.87;;;17.40;99.90;;;;;;4962011;28;20493;-68
2022/07/30 02:37:01;;;;;;;7.30;6.67;;;17.30;99.90;;;;;;4970355;28;20449;-68
2022/07/30 02:39:29;;;;;;;8.10;7.33;;;17.30;99.90;;;;;;4976337;28;20471;-68
2022/07/30 02:41:56;;;;;;;7.33;6.07;;;17.30;99.90;;;;;;4970418;28;20525;-68
2022/07/30 02:44:23;;;;;;;7.20;6.70;;;17.30;99.90;;;;;;4973128;28;20484;-68
2022/07/30 02:46:50;;;;;;;6.97;6.47;;;17.30;99.90;;;;;;4971984;28;20518;-68
2022/07/30 02:49:19;;;;;;;7.33;6.83;;;17.20;99.90;;;;;;4972346;28;20470;-68
2022/07/30 02:51:47;;;;;;;10.07;6.50;;;17.20;99.90;;;;;;4973879;28;20449;-69
2022/07/30 02:54:16;;;;;;;6.80;6.30;;;17.10;99.90;;;;;;4971603;28;20463;-68
2022/07/30 02:56:43;;;;;;;7.27;6.67;;;17.10;99.90;;;;;;4972530;28;20439;-68
2022/07/30 02:59:11;;;;;;;7.77;7.23;;;17.00;99.90;;;;;;4971289;28;20463;-67
2022/07/30 03:01:37;;;;;;;7.93;7.30;;;17.00;99.90;;;;;;4973197;28;20443;-67
2022/07/30 03:04:03;;;;;;;7.27;6.57;;;17.00;99.90;;;;;;4974829;28;20458;-67
2022/07/30 03:06:30;;;;;;;8.00;7.37;;;16.90;99.90;;;;;;4966959;28;20446;-67
2022/07/30 03:08:58;;;;;;;7.30;6.70;;;16.90;99.90;;;;;;4973056;28;20442;-67
2022/07/30 03:11:26;;;;;;;8.07;7.40;;;16.90;99.90;;;;;;4972252;28;20505;-67
2022/07/30 03:13:52;;;;;;;7.23;6.73;;;16.80;99.90;;;;;;4968529;28;20482;-67
2022/07/30 03:16:20;;;;;;;8.00;7.40;;;16.80;99.90;;;;;;4972538;28;20435;-67
2022/07/30 03:18:47;;;;;;;8.07;7.37;;;16.90;99.90;;;;;;4973036;28;20200;-67
2022/07/30 03:21:14;;;;;;;8.33;7.73;;;16.90;99.90;;;;;;4974251;28;20845;-67
2022/07/30 03:23:43;;;;;;;8.83;7.57;;;16.90;99.90;;;;;;4971578;28;20992;-66
2022/07/30 03:26:09;;;;;;;8.60;7.13;;;16.90;99.90;;;;;;4972107;28;20435;-67
2022/07/30 03:28:38;;;;;;;8.13;7.53;;;16.90;99.90;;;;;;4972806;28;20439;-67
2022/07/30 03:31:05;;;;;;;7.90;7.40;;;16.90;99.90;;;;;;4980084;28;20434;-67
2022/07/30 03:33:34;;;;;;;8.13;7.43;;;17.00;99.90;;;;;;4975357;28;20982;-66
2022/07/30 03:36:01;;;;;;;10.77;7.70;;;17.00;99.90;;;;;;4982039;28;20442;-67
2022/07/30 03:38:27;;;;;;;7.97;7.30;;;16.90;99.90;;;;;;4972050;28;20614;-67
2022/07/30 03:40:54;;;;;;;7.63;7.03;;;16.90;99.90;;;;;;4967606;28;20527;-67
2022/07/30 03:43:20;;;;;;;7.80;7.23;;;16.90;99.90;;;;;;4973436;28;20686;-66
2022/07/30 03:45:47;;;;;;;8.10;7.50;;;16.80;99.90;;;;;;4973906;28;20445;-67
2022/07/30 03:48:14;;;;;;;8.83;7.60;;;16.80;99.90;;;;;;4988514;28;20937;-67
2022/07/30 03:50:40;;;;;;;8.07;7.50;;;16.70;99.90;;;;;;4989997;28;20462;-67
2022/07/30 03:53:08;;;;;;;8.40;7.70;;;16.60;99.90;;;;;;4972329;28;20456;-67
2022/07/30 03:55:34;;;;;;;10.23;7.23;;;16.60;99.90;;;;;;4972886;28;20494;-67
2022/07/30 03:58:01;;;;;;;11.37;8.50;;;16.60;99.90;;;;;;4972363;28;20860;-67
2022/07/30 04:00:27;;;;;;;9.30;8.50;;;16.60;99.90;;;;;;4971900;28;20463;-67
2022/07/30 04:02:53;;;;;;;8.37;7.67;;;16.60;99.90;;;;;;4971354;28;20534;-67
2022/07/30 04:05:19;;;;;;;8.80;7.90;;;16.60;99.90;;;;;;4973070;28;20495;-67
2022/07/30 04:07:45;;;;;;;8.63;8.00;;;16.60;99.90;;;;;;4972666;28;20851;-67
2022/07/30 04:10:12;;;;;;;8.50;7.80;;;16.50;99.90;;;;;;4971135;28;20439;-67
2022/07/30 04:12:37;;;;;;;8.37;7.57;;;16.40;99.90;;;;;;4970676;28;20184;-67
2022/07/30 04:15:03;;;;;;;7.67;7.00;;;16.40;99.90;;;;;;4972413;28;21016;-67
2022/07/30 04:17:45;;;;;;;13.10;7.83;;;16.40;99.90;;;;;;4972170;28;20717;-67
2022/07/30 04:20:24;;;;;;;8.37;7.70;;;16.40;99.90;;;;;;4967166;28;20211;-66
2022/07/30 04:22:52;;;;;;;8.90;8.20;;;16.50;99.90;;;;;;4972243;28;20509;-67
2022/07/30 04:25:19;;;;;;;8.53;7.60;;;16.60;99.90;;;;;;4975134;28;20460;-67
2022/07/30 04:27:45;;;;;;;7.83;7.23;;;16.60;99.90;;;;;;4968766;28;20432;-67
2022/07/30 04:30:11;;;;;;;10.47;8.67;;;16.70;99.90;;;;;;4967596;28;20437;-67
2022/07/30 04:32:36;;;;;;;9.03;8.43;;;16.70;99.90;;;;;;4971511;28;20243;-67
2022/07/30 04:35:03;;;;;;;8.60;8.00;;;16.80;99.90;;;;;;4973222;28;20510;-67
2022/07/30 04:37:28;;;;;;;8.30;7.70;;;16.90;99.90;;;;;;4972086;28;20183;-67
2022/07/30 04:39:56;;;;;;;8.47;7.87;;;17.00;99.90;;;;;;4972622;28;20751;-67
2022/07/30 04:42:23;;;;;;;9.13;8.33;;;17.10;99.90;;;;;;4970200;28;20176;-67
2022/07/30 04:44:49;;;;;;;8.40;7.70;;;17.20;99.90;;;;;;4972405;28;20441;-67
2022/07/30 04:47:15;;;;;;;8.70;7.90;;;17.30;99.90;;;;;;4972593;28;20427;-66
2022/07/30 04:49:43;;;;;;;9.37;7.63;;;17.40;99.90;;;;;;4971248;28;20768;-67
2022/07/30 04:52:10;;;;;;;8.47;7.83;;;17.50;99.90;;;;;;4956150;28;20431;-67
2022/07/30 04:54:49;;;;;;;8.83;8.03;;;17.60;99.90;;;;;;4965915;28;20868;-67
2022/07/30 04:57:16;;;;;;;8.00;7.23;;;17.70;99.90;;;;;;4967427;28;20440;-67
2022/07/30 04:59:42;;;;;;;8.50;7.57;;;17.80;99.90;;;;;;4971197;28;20459;-67
2022/07/30 05:02:10;;;;;;;6.80;6.20;;;18.10;99.90;;;;;;4969654;28;20447;-67
2022/07/30 05:04:36;;;;;;;7.63;7.07;;;18.00;99.90;;;;;;4970566;28;20298;-67
2022/07/30 05:07:04;;;;;;;8.90;8.20;;;18.20;99.90;;;;;;4971225;28;20900;-67
2022/07/30 05:09:30;;;;;;;7.23;6.60;;;18.40;99.90;;;;;;4964077;28;20443;-67
2022/07/30 05:11:56;;;;;;;7.67;7.07;;;18.60;99.90;;;;;;4970160;28;20435;-67
2022/07/30 05:14:23;;;;;;;9.30;7.93;;;18.60;99.90;;;;;;4970544;28;20198;-67
2022/07/30 05:16:49;;;;;;;8.63;8.03;;;18.70;99.90;;;;;;4970655;28;20443;-67
2022/07/30 05:19:16;;;;;;;7.73;7.03;;;18.90;99.90;;;;;;4971454;28;20495;-67
2022/07/30 05:21:42;;;;;;;8.17;7.57;;;19.00;99.90;;;;;;4976460;28;20435;-67
2022/07/30 05:24:07;;;;;;;8.10;7.43;;;19.20;99.90;;;;;;4969027;28;20455;-67
2022/07/30 05:26:33;;;;;;;7.70;6.97;;;19.30;99.90;;;;;;4971699;28;20185;-67
2022/07/30 05:28:59;;;;;;;7.20;6.70;;;19.60;99.90;;;;;;4970819;28;20193;-67
2022/07/30 05:31:24;;;;;;;7.67;6.90;;;19.70;99.90;;;;;;4979127;28;20375;-67
2022/07/30 05:33:50;;;;;;;8.60;7.73;;;19.80;99.90;;;;;;4982288;28;20250;-67
2022/07/30 05:36:16;;;;;;;7.73;7.13;;;19.80;99.90;;;;;;4988055;28;20262;-67
2022/07/30 05:38:41;;;;;;;8.27;7.57;;;20.00;99.90;;;;;;4977491;28;20342;-67
2022/07/30 05:41:07;;;;;;;10.17;9.10;;;20.20;99.90;;;;;;4981013;28;20263;-67
2022/07/30 05:43:32;;;;;;;9.13;8.23;;;20.40;99.90;;;;;;4979432;28;20206;-67
2022/07/30 05:45:58;;;;;;;9.20;8.50;;;20.40;99.90;;;;;;4983587;28;20184;-67
2022/07/30 05:48:23;;;;;;;9.20;8.23;;;20.50;99.90;;;;;;4968011;28;20196;-68
2022/07/30 05:50:49;;;;;;;7.40;6.63;;;20.80;99.90;;;;;;4951900;28;20195;-68
2022/07/30 05:53:14;;;;;;;7.20;6.37;;;20.80;99.90;;;;;;4978235;28;20673;-68
2022/07/30 05:55:40;;;;;;;9.03;8.17;;;21.00;99.90;;;;;;4984954;28;20194;-68
2022/07/30 05:58:06;;;;;;;9.77;8.80;;;21.30;99.90;;;;;;4974596;28;20227;-67
2022/07/30 06:00:32;;;;;;;8.00;7.23;;;21.40;99.90;;;;;;4981291;28;20530;-67
2022/07/30 06:02:58;;;;;;;6.70;6.10;;;21.50;99.90;;;;;;4981686;28;20346;-67
2022/07/30 06:05:24;;;;;;;9.47;6.70;;;21.40;99.90;;;;;;4983418;28;20998;-67
2022/07/30 06:07:49;;;;;;;7.90;6.87;;;21.50;99.90;;;;;;4982094;28;20322;-68
2022/07/30 06:10:15;;;;;;;7.70;5.97;;;21.60;99.90;;;;;;4979963;28;20180;-68
2022/07/30 06:12:41;;;;;;;7.63;6.60;;;21.60;99.90;;;;;;4987183;28;20252;-67
2022/07/30 06:15:08;;;;;;;7.60;7.00;;;21.60;99.90;;;;;;4984276;28;20172;-67
2022/07/30 06:17:39;;;;;;;8.30;7.50;;;21.60;99.90;;;;;;4988393;28;20442;-67
2022/07/30 06:20:05;;;;;;;7.43;6.63;;;21.90;99.90;;;;;;4985375;28;20446;-67
2022/07/30 06:22:30;;;;;;;6.47;5.97;;;21.80;99.90;;;;;;4990936;28;20525;-67
2022/07/30 06:24:56;;;;;;;7.97;7.37;;;22.00;99.90;;;;;;4967107;28;20534;-67
2022/07/30 06:27:21;;;;;;;7.47;6.60;;;22.10;99.90;;;;;;4986955;28;20264;-67
2022/07/30 06:29:47;;;;;;;7.77;7.03;;;22.20;99.90;;;;;;4978450;28;20184;-67
2022/07/30 06:32:12;;;;;;;7.40;6.77;;;22.30;99.90;;;;;;4986413;28;20184;-67
2022/07/30 06:34:38;;;;;;;7.67;6.80;;;22.40;99.90;;;;;;4983136;28;20694;-67
2022/07/30 06:37:03;;;;;;;8.57;7.70;;;22.40;99.90;;;;;;4990511;28;20180;-67
2022/07/30 06:39:29;;;;;;;9.00;8.20;;;22.40;99.90;;;;;;4970666;28;20306;-67
2022/07/30 06:41:54;;;;;;;8.27;7.63;;;22.60;99.90;;;;;;4985338;28;20175;-67
2022/07/30 06:44:20;;;;;;;7.93;7.13;;;22.80;99.90;;;;;;4974186;28;20204;-67
2022/07/30 06:46:45;;;;;;;7.93;7.30;;;22.90;99.90;;;;;;4975318;28;20238;-67
2022/07/30 06:49:11;;;;;;;7.70;6.97;;;23.00;99.90;;;;;;4955772;28;20191;-67
2022/07/30 06:51:36;;;;;;;9.47;6.93;;;23.00;99.90;;;;;;4974728;28;20527;-67
2022/07/30 06:54:02;;;;;;;9.60;7.10;;;23.20;99.90;;;;;;4974146;28;20222;-67
2022/07/30 06:56:27;;;;;;;10.30;7.27;;;23.30;99.90;;;;;;4973222;28;20192;-64
2022/07/30 06:58:53;;;;;;;7.20;6.50;;;23.30;99.90;;;;;;4973811;28;20227;-65
2022/07/30 07:01:20;;;;;;;8.63;7.83;;;23.50;99.90;;;;;;4973510;28;20250;-64
2022/07/30 07:03:45;;;;;;;7.13;6.43;;;23.80;99.90;;;;;;4975593;28;20192;-64
2022/07/30 07:06:11;;;;;;;8.23;6.80;;;23.90;99.90;;;;;;4980608;28;20435;-64
2022/07/30 07:08:37;;;;;;;6.93;6.23;;;23.90;99.90;;;;;;4981622;28;20682;-64
2022/07/30 07:11:02;;;;;;;7.70;6.83;;;24.20;99.90;;;;;;4974308;28;20203;-64
2022/07/30 07:13:28;;;;;;;9.07;8.20;;;24.60;99.90;;;;;;4991207;28;20247;-64
2022/07/30 07:15:54;;;;;;;10.03;6.40;;;24.70;99.90;;;;;;4985482;28;20176;-64
2022/07/30 07:18:19;;;;;;;9.53;7.00;;;24.70;99.90;;;;;;4989452;28;20290;-64
2022/07/30 07:20:45;;;;;;;8.40;7.60;;;24.70;99.90;;;;;;4991107;28;20179;-64
2022/07/30 07:23:11;;;;;;;7.87;7.20;;;24.80;99.90;;;;;;4988397;28;20678;-64
2022/07/30 07:25:36;;;;;;;6.77;5.93;;;24.90;99.90;;;;;;4991615;28;20176;-65
2022/07/30 07:28:03;;;;;;;7.40;6.80;;;25.10;99.90;;;;;;4982517;28;20665;-64
2022/07/30 07:30:29;;;;;;;7.27;6.67;;;25.20;99.90;;;;;;4990781;28;20227;-65
2022/07/30 07:32:54;;;;;;;6.93;6.30;;;25.10;99.80;;;;;;4991761;28;20484;-64
2022/07/30 07:35:20;;;;;;;7.00;6.50;;;25.50;98.70;;;;;;4991786;28;20179;-64
2022/07/30 07:37:45;;;;;;;7.50;6.63;;;25.40;98.30;;;;;;4986507;28;20678;-65
2022/07/30 07:40:11;;;;;;;6.83;5.50;;;25.40;98.40;;;;;;4982491;28;20192;-64
2022/07/30 07:42:37;;;;;;;6.93;5.90;;;25.40;97.70;;;;;;4984653;28;20207;-64
2022/07/30 07:45:03;;;;;;;6.70;6.17;;;25.50;97.40;;;;;;4985331;28;20431;-64
2022/07/30 07:47:28;;;;;;;9.97;5.27;;;25.70;96.40;;;;;;4973799;28;20180;-65
2022/07/30 07:49:55;;;;;;;6.33;5.40;;;25.80;96.60;;;;;;4983794;28;20180;-65
2022/07/30 07:52:20;;;;;;;6.50;5.83;;;26.30;95.90;;;;;;4984443;28;20280;-64
2022/07/30 07:54:46;;;;;;;7.93;5.83;;;26.60;95.30;;;;;;4976084;28;20916;-64
2022/07/30 07:57:11;;;;;;;5.60;5.30;;;26.60;92.70;;;;;;4981176;28;20180;-65
2022/07/30 07:59:37;;;;;;;6.13;5.23;;;26.80;91.70;;;;;;4972435;28;20204;-65
2022/07/30 08:02:03;;;;;;;5.53;5.20;;;26.90;91.10;;;;;;4982152;28;20204;-64
2022/07/30 08:04:29;;;;;;;4.83;4.40;;;27.00;90.80;;;;;;4985193;28;20192;-65
2022/07/30 08:06:54;;;;;;;6.30;5.70;;;27.40;90.50;;;;;;4984413;28;20203;-65
2022/07/30 08:09:20;;;;;;;8.40;5.20;;;27.50;88.80;;;;;;4982904;28;20446;-65
2022/07/30 08:11:45;;;;;;;7.00;5.40;;;27.70;88.40;;;;;;4977415;28;20339;-65
2022/07/30 08:14:12;;;;;;;4.80;4.30;;;27.90;88.50;;;;;;4985900;28;20195;-65
2022/07/30 08:16:37;;;;;;;6.10;5.50;;;28.20;86.10;;;;;;4982089;28;20449;-65
2022/07/30 08:19:03;;;;;;;4.80;4.50;;;28.10;80.20;;;;;;4981416;28;20203;-65
2022/07/30 08:21:28;;;;;;;4.50;4.13;;;28.30;79.50;;;;;;4982208;28;20191;-64
2022/07/30 08:23:54;;;;;;;5.20;4.70;;;28.10;80.40;;;;;;4979607;28;20262;-65
2022/07/30 08:26:20;;;;;;;6.77;6.17;;;28.10;79.90;;;;;;4983971;28;20599;-65
2022/07/30 08:28:46;;;;;;;7.57;5.60;;;28.10;78.90;;;;;;4987088;28;20211;-65
2022/07/30 08:31:12;;;;;;;4.80;4.50;;;27.90;79.00;;;;;;4982889;28;20184;-65
2022/07/30 08:33:37;;;;;;;8.60;6.03;;;27.80;80.30;;;;;;4982345;28;20486;-65
2022/07/30 08:36:03;;;;;;;5.33;4.83;;;27.90;78.80;;;;;;4981194;28;20187;-64
2022/07/30 08:38:29;;;;;;;7.50;4.60;;;28.30;78.50;;;;;;4986552;28;20207;-65
2022/07/30 08:40:55;;;;;;;5.80;4.50;;;27.90;78.10;;;;;;4989018;28;20632;-64
2022/07/30 08:43:23;;;;;;;5.23;4.73;;;27.60;78.80;;;;;;4965316;28;20701;-64
2022/07/30 08:45:50;;;;;;;5.50;5.00;;;27.90;78.10;;;;;;4980644;28;20434;-65
2022/07/30 08:48:19;;;;;;;5.73;4.60;;;27.80;75.90;;;;;;4988926;28;20434;-65
2022/07/30 08:50:45;;;;;;;5.37;4.87;;;28.00;77.20;;;;;;4982381;28;20430;-65
2022/07/30 08:53:11;;;;;;;5.70;4.60;;;28.60;75.90;;;;;;4969440;28;20563;-65
2022/07/30 08:55:36;;;;;;;5.03;4.40;;;29.00;73.90;;;;;;4970063;28;20522;-65
2022/07/30 08:58:04;;;;;;;5.50;4.63;;;29.20;73.90;;;;;;4968877;28;20215;-64
2022/07/30 09:00:30;;;;;;;4.93;4.63;;;28.90;72.60;;;;;;4969338;28;20687;-64
2022/07/30 09:02:56;;;;;;;5.07;4.67;;;28.70;73.40;;;;;;4971643;28;20546;-63
2022/07/30 09:05:22;;;;;;;5.73;5.20;;;28.00;74.30;;;;;;4971039;28;20246;-63
2022/07/30 09:07:48;;;;;;;5.13;4.00;;;27.20;74.20;;;;;;4971361;28;20451;-65
2022/07/30 09:10:13;;;;;;;4.80;4.47;;;27.20;74.80;;;;;;4975460;28;20188;-62
2022/07/30 09:12:41;;;;;;;6.60;4.90;;;27.90;74.70;;;;;;4975422;28;20854;-62
2022/07/30 09:15:14;;;;;;;4.60;4.17;;;28.80;72.10;;;;;;4970933;28;20638;-63
2022/07/30 09:17:52;;;;;;;13.10;5.80;;;29.10;71.70;;;;;;4974323;28;20443;-62
2022/07/30 09:20:22;;;;;;;5.20;4.00;;;28.40;69.40;;;;;;4969775;28;20435;-62
2022/07/30 09:22:52;;;;;;;6.20;4.57;;;29.00;69.90;;;;;;4986791;28;20446;-62
2022/07/30 09:25:33;;;;;;;5.60;5.13;;;29.70;69.30;;;;;;4973947;28;20431;-65
2022/07/30 09:28:00;;;;;;;3.87;3.57;;;29.70;67.70;;;;;;4982708;28;20439;-64
2022/07/30 09:30:27;;;;;;;6.67;4.20;;;30.00;66.30;;;;;;4968351;28;20444;-62
2022/07/30 09:32:55;;;;;;;7.10;4.53;;;30.70;64.70;;;;;;4970601;28;20467;-62
2022/07/30 09:35:22;;;;;;;6.00;4.30;;;31.20;62.10;;;;;;4972672;28;20518;-62
2022/07/30 09:37:58;;;;;;;4.37;3.93;;;31.10;61.80;;;;;;4978184;28;20489;-62
2022/07/30 09:40:23;;;;;;;5.07;4.67;;;30.70;61.30;;;;;;4979685;28;20910;-62
2022/07/30 09:43:02;;;;;;;6.67;4.30;;;29.90;62.40;;;;;;4979597;28;20538;-62
2022/07/30 09:45:28;;;;;;;10.33;3.80;;;29.30;64.30;;;;;;4986506;28;20318;-62
2022/07/30 09:47:53;;;;;;;5.03;3.20;;;29.30;62.50;;;;;;4971844;28;20518;-62
2022/07/30 09:50:19;;;;;;;4.63;4.23;;;29.80;62.20;;;;;;4985440;28;20224;-63
2022/07/30 09:52:46;;;;;;;4.53;4.23;;;30.40;59.90;;;;;;4988225;28;20720;-62
2022/07/30 09:55:13;;;;;;;7.87;4.27;;;30.60;59.20;;;;;;4983129;28;20831;-62
2022/07/30 09:57:59;;;;;;;4.97;4.57;;;31.00;58.10;;;;;;4988288;28;20438;-62
2022/07/30 10:00:27;;;;;;;4.27;3.87;;;30.60;58.00;;;;;;4985268;28;20449;-62
2022/07/30 10:02:53;;;;;;;4.90;3.87;;;30.80;57.70;;;;;;4988416;28;20446;-62
2022/07/30 10:05:19;;;;;;;3.83;3.63;;;31.40;56.90;;;;;;4986513;28;20426;-62
2022/07/30 10:07:57;;;;;;;3.70;3.50;;;31.50;56.00;;;;;;4985588;28;20430;-62
2022/07/30 10:10:25;;;;;;;4.67;3.40;;;31.80;56.70;;;;;;4983732;28;20435;-63
2022/07/30 10:13:02;;;;;;;6.80;4.27;;;31.60;56.00;;;;;;4989601;28;20991;-63
2022/07/30 10:15:30;;;;;;;4.97;3.97;;;31.70;56.40;;;;;;4987346;28;20435;-62
2022/07/30 10:17:57;;;;;;;4.10;3.70;;;32.00;56.10;;;;;;4984986;28;20544;-62
2022/07/30 10:20:23;;;;;;;10.97;9.87;;;31.50;55.30;;;;;;4986928;28;20428;-62
2022/07/30 10:22:49;;;;;;;4.60;3.87;;;30.90;56.30;;;;;;4983979;28;20475;-62
2022/07/30 10:25:19;;;;;;;3.20;3.00;;;31.20;55.80;;;;;;4985272;28;20520;-63
2022/07/30 10:27:46;;;;;;;6.17;3.40;;;32.30;54.80;;;;;;4970311;28;20439;-63
2022/07/30 10:30:12;;;;;;;3.90;3.17;;;33.30;53.60;;;;;;4970614;28;20525;-63
2022/07/30 10:32:39;;;;;;;4.43;3.13;;;33.10;52.30;;;;;;4972394;28;20591;-65
2022/07/30 10:35:05;;;;;;;3.40;3.20;;;32.60;52.90;;;;;;4967269;28;20470;-62
2022/07/30 10:37:33;;;;;;;3.70;3.40;;;32.60;52.50;;;;;;4971443;28;20510;-62
2022/07/30 10:40:09;;;;;;;3.70;3.40;;;33.40;51.10;;;;;;4967578;28;20447;-63
2022/07/30 10:42:53;;;;;;;3.93;3.63;;;34.60;50.00;;;;;;4971683;28;20446;-64
2022/07/30 10:45:37;;;;;;;3.83;3.40;;;36.00;47.40;;;;;;4985708;28;20478;-63
2022/07/30 10:48:03;;;;;;;4.20;3.47;;;35.80;45.50;;;;;;4983293;28;20437;-63
2022/07/30 10:50:29;;;;;;;3.30;3.10;;;35.00;45.90;;;;;;4983434;28;20891;-63
2022/07/30 10:52:57;;;;;;;3.03;2.80;;;34.50;47.30;;;;;;4984048;28;20479;-62
2022/07/30 10:55:28;;;;;;;3.60;3.33;;;34.10;47.20;;;;;;4980437;28;20176;-63
2022/07/30 10:58:00;;;;;;;3.83;3.23;;;33.70;47.90;;;;;;4971235;28;20462;-65
2022/07/30 11:00:27;;;;;;;3.20;3.00;;;34.60;47.00;;;;;;4979350;28;20431;-64
2022/07/30 11:03:14;;;;;;;3.63;3.13;;;35.50;45.80;;;;;;4973817;28;20994;-64
2022/07/30 11:05:40;;;;;;;3.80;2.80;;;34.00;44.80;;;;;;4977296;28;20435;-64
2022/07/30 11:08:33;;;;;;;3.70;3.40;;;33.20;45.70;;;;;;4982318;28;20436;-64
2022/07/30 11:10:59;;;;;;;3.67;3.40;;;32.70;47.20;;;;;;4970843;28;20443;-64
2022/07/30 11:13:56;;;;;;;4.63;2.90;;;32.30;47.00;;;;;;4977544;28;20482;-62
2022/07/30 11:16:42;;;;;;;3.00;2.50;;;31.40;48.00;;;;;;4973982;28;20443;-65
2022/07/30 11:19:16;;;;;;;3.00;2.80;;;30.90;48.80;;;;;;4961340;28;20569;-64
2022/07/30 11:21:44;;;;;;;7.10;3.17;;;32.30;48.00;;;;;;4972968;28;20550;-65
2022/07/30 11:24:44;;;;;;;4.40;4.00;;;34.10;45.00;;;;;;4968707;28;20514;-64
2022/07/30 11:27:33;;;;;;;4.77;3.03;;;35.50;44.30;;;;;;4968362;28;20883;-63
2022/07/30 11:29:59;;;;;;;4.00;3.10;;;34.50;42.70;;;;;;4974506;28;20799;-64
2022/07/30 11:32:30;;;;;;;2.90;2.70;;;33.30;44.90;;;;;;4968618;28;20432;-64
2022/07/30 11:35:22;;;;;;;3.20;3.00;;;33.50;45.60;;;;;;4982067;28;20191;-63
2022/07/30 11:38:05;;;;;;;4.87;4.47;;;34.40;43.70;;;;;;4971764;28;20471;-67
2022/07/30 11:40:36;;;;;;;3.00;2.73;;;37.10;42.60;;;;;;4965364;28;20810;-66
2022/07/30 11:43:24;;;;;;;3.33;2.70;;;39.30;41.50;;;;;;4970760;28;20450;-67
2022/07/30 11:46:03;;;;;;;4.33;2.73;;;40.40;40.40;;;;;;4973023;28;20526;-66
2022/07/30 11:48:29;;;;;;;3.40;3.10;;;39.90;40.10;;;;;;4974379;28;20574;-65
2022/07/30 11:50:55;;;;;;;3.47;3.17;;;38.80;41.30;;;;;;4975030;28;20443;-67
2022/07/30 11:53:21;;;;;;;2.97;2.77;;;38.80;40.50;;;;;;4954457;28;20475;-67
2022/07/30 11:55:52;;;;;;;3.83;2.80;;;39.70;40.30;;;;;;4977268;28;20669;-65
2022/07/30 11:58:28;;;;;;;4.30;3.30;;;38.40;39.50;;;;;;4970206;28;20216;-64
2022/07/30 12:00:56;;;;;;;3.90;2.93;;;36.40;40.50;;;;;;4971480;28;20570;-64
2022/07/30 12:03:23;;;;;;;2.83;2.40;;;37.70;40.60;;;;;;4973420;28;20670;-64
2022/07/30 12:05:49;;;;;;;2.90;2.70;;;38.90;38.50;;;;;;4972047;28;20865;-63
2022/07/30 12:08:15;;;;;;;3.30;3.00;;;37.60;38.50;;;;;;4975502;28;20522;-64
2022/07/30 12:10:41;;;;;;;2.60;2.40;;;35.80;39.80;;;;;;4974807;28;20291;-64
2022/07/30 12:13:15;;;;;;;3.30;3.00;;;34.30;40.60;;;;;;4983818;28;20230;-64
2022/07/30 12:15:46;;;;;;;3.23;3.03;;;35.90;40.30;;;;;;4980619;28;20442;-64
2022/07/30 12:18:12;;;;;;;3.67;2.60;;;38.50;39.30;;;;;;4981113;28;20480;-62
2022/07/30 12:20:39;;;;;;;4.80;3.13;;;40.80;37.10;;;;;;4973076;28;20807;-64
2022/07/30 12:23:12;;;;;;;3.47;3.17;;;42.00;35.30;;;;;;4973272;28;20459;-64
2022/07/30 12:25:42;;;;;;;4.10;3.80;;;42.90;35.00;;;;;;4971920;28;20864;-64
2022/07/30 12:28:09;;;;;;;2.83;2.60;;;43.60;32.90;;;;;;4975752;28;20557;-64
2022/07/30 12:30:40;;;;;;;3.10;2.80;;;43.30;30.80;;;;;;4979776;28;21192;-64
2022/07/30 12:33:06;;;;;;;3.20;3.00;;;42.20;30.90;;;;;;4989630;28;21058;-64
2022/07/30 12:35:45;;;;;;;3.20;2.90;;;41.50;32.20;;;;;;4982042;28;20960;-63
2022/07/30 12:38:10;;;;;;;2.77;2.67;;;40.60;32.70;;;;;;4989716;28;20825;-64
2022/07/30 12:40:57;;;;;;;3.80;3.07;;;37.40;33.00;;;;;;4976706;28;20444;-63
2022/07/30 12:43:51;;;;;;;3.53;3.23;;;36.40;35.40;;;;;;4973816;28;20202;-63
2022/07/30 12:46:25;;;;;;;5.10;2.63;;;37.60;34.90;;;;;;4980210;28;20448;-64
2022/07/30 12:48:54;;;;;;;3.63;2.87;;;39.20;33.00;;;;;;4974360;28;20457;-63
2022/07/30 12:51:23;;;;;;;3.10;2.90;;;37.70;33.30;;;;;;4972462;28;21008;-64
2022/07/30 12:53:49;;;;;;;3.50;2.50;;;37.40;34.30;;;;;;4974011;28;20470;-64
2022/07/30 12:56:17;;;;;;;4.00;2.63;;;39.00;33.70;;;;;;4979653;28;20446;-64